Nearby METAR Reports

 

KMTN - Baltimore/Martin, Maryland, USA
Distance from station: SSE 8mi, 13km
Updated: Fri, 04-Sep-2015 1:50pm EDT
Partly cloudy
Partly cloudy
 Wind from ENE
Wind: ENE 6 mph , 9 km/h
Temperature: 90°F , 32°C
Heat Index: 99°F , 37°C
Dew Point: 73°F , 23°C
Humidity: 59%
Barometer: 30.04 inHg , 1017.3 hPa
Clouds: Partly cloudy
Visibility: 10 miles , 16 km
Cloud details: Partly cloudy 5500 ft
2015/09/04 17:50 KMTN 041750Z 07005KT 10SM SCT055 32/23 A3004
KDMH - Baltimore/Dwntwn, Maryland, USA
Distance from station: SW 12mi, 19km
Updated: Fri, 04-Sep-2015 1:54pm EDT

 
Temperature: 90°F , 32°C
Heat Index: 93°F , 34°C
Dew Point: 66°F , 19°C
Humidity: 46%
Barometer: 30.02 inHg , 1016.6 hPa
2015/09/04 17:54 KDMH 041754Z AUTO 32/19 A3002 RMK AO1 SLP166 T03220194 10322 20261 50001
 
KBWI - Balto/Wash Intl, Maryland, USA
Distance from station: SSW 20mi, 33km
Updated: Fri, 04-Sep-2015 1:54pm EDT
Mostly cloudy
Mostly cloudy
 Wind from ESE
Wind: ESE 12 mph , 19 km/h
Temperature: 90°F , 32°C
Heat Index: 93°F , 34°C
Dew Point: 66°F , 19°C
Humidity: 46%
Barometer: 30.02 inHg , 1016.6 hPa
Clouds: Mostly cloudy
Visibility: 7 miles , 11 km
Cloud details: Few Clouds 4100 ft
Partly cloudy 6500 ft
Partly cloudy 10000 ft
Mostly cloudy 25000 ft
2015/09/04 17:54 KBWI 041754Z 11010KT 7SM FEW041 SCT065 SCT100 BKN250 32/19 A3002 RMK AO2 SLP164 CB DSNT NW MOV W T03170189 10322 20250 50001
KDMW - Carroll Cnty, Maryland, USA
Distance from station: WNW 30mi, 48km
Updated: Fri, 04-Sep-2015 2:25pm EDT
Heavy thunderstorm, Rain, Overcast
Heavy thunderstorm, Rain, Overcast
 Wind from E
Wind: E 12 mph , 19 km/h
Temperature: 75°F , 24°C
Dew Point: 70°F , 21°C
Humidity: 83%
Barometer: 30.08 inHg , 1018.6 hPa
Summary: Heavy thunderstorm, Rain
Clouds: Overcast
Visibility: 1 1/2 miles , 2 km
Cloud details: Mostly cloudy 1200 ft
Mostly cloudy 2200 ft
Overcast 4400 ft
2015/09/04 18:25 KDMW 041825Z AUTO 08010KT 1 1/2SM +TSRA BKN012 BKN022 OVC044 24/21 A3008 RMK AO2 VIS 1V4 LTG DSNT S THRU N P0013
 
KNAK - Annapolis/Naval, Maryland, USA
Distance from station: S 30mi, 48km
Updated: Fri, 04-Sep-2015 1:54pm EDT
Haze, Clear
Haze, Clear
 Wind from varies
Wind: varies 5 mph , 7 km/h
Temperature: 88°F , 31°C
Heat Index: 96°F , 36°C
Dew Point: 73°F , 23°C
Humidity: 62%
Barometer: 30.01 inHg , 1016.3 hPa
Summary: Haze
Clouds: Clear
Visibility: 6 miles , 10 km
2015/09/04 17:54 KNAK 041754Z AUTO VRB04KT 6SM HZ CLR 31/23 A3001 RMK AO2 SLP165 T03060228 10311 20250 58001
KW29 - Stevensville, Maryland, USA
Distance from station: SSE 31mi, 50km
Updated: Fri, 04-Sep-2015 2:28pm EDT

 Wind from NNE
Wind: NNE 3 mph , 6 km/h
Temperature: 86°F , 30°C
Heat Index: 89°F , 32°C
Dew Point: 68°F , 20°C
Humidity: 55%
Barometer: 30.02 inHg , 1016.6 hPa
Visibility: 7 miles , 11 km
2015/09/04 18:28 KW29 041828Z AUTO 02003KT 7SM 30/20 A3002 RMK AO1 LTG DSNT NE AND SW
 
KCGS - College Park, Maryland, USA
Distance from station: SW 38mi, 61km
Updated: Fri, 04-Sep-2015 2:25pm EDT
Partly cloudy
Partly cloudy
 Wind from ENE
Wind: ENE 7 mph , 11 km/h
Temperature: 90°F , 32°C
Heat Index: 92°F , 33°C
Dew Point: 64°F , 18°C
Humidity: 43%
Barometer: 30.01 inHg , 1016.3 hPa
Clouds: Partly cloudy
Visibility: 10 miles , 16 km
Cloud details: Partly cloudy 5000 ft
2015/09/04 18:25 KCGS 041825Z AUTO 06006KT 10SM SCT050 32/18 A3001 RMK AO1
KGAI - Gaithersburg, Maryland, USA
Distance from station: WSW 40mi, 65km
Updated: Fri, 04-Sep-2015 2:35pm EDT
Partly cloudy
Partly cloudy
 Wind from ENE
Wind: ENE 7 mph , 11 km/h
Temperature: 88°F , 31°C
Heat Index: 91°F , 33°C
Dew Point: 66°F , 19°C
Humidity: 49%
Barometer: 30.06 inHg , 1017.9 hPa
Clouds: Partly cloudy
Visibility: 10 miles , 16 km
Cloud details: Partly cloudy 4900 ft
Partly cloudy 5500 ft
Partly cloudy 7000 ft
2015/09/04 18:35 KGAI 041835Z AUTO 06006KT 10SM SCT049 SCT055 SCT070 31/19 A3006 RMK AO1 LTG DSNT S
 
KTHV - York, Pennsylvania, USA
Distance from station: NNW 40mi, 65km
Updated: Fri, 04-Sep-2015 1:53pm EDT
Few Clouds
Few Clouds
 Wind from E
Wind: E 6 mph , 9 km/h
Temperature: 88°F , 31°C
Heat Index: 93°F , 34°C
Dew Point: 70°F , 21°C
Humidity: 55%
Barometer: 30.05 inHg , 1017.6 hPa
Clouds: Few Clouds
Visibility: 7 miles , 11 km
Cloud details: Few Clouds 4100 ft
2015/09/04 17:53 KTHV 041753Z AUTO 10005KT 7SM FEW041 31/21 A3005 RMK AO2 LTG DSNT S AND SW SLP173 T03060211 10317 20217 58002
KFDK - Frederick, Maryland, USA
Distance from station: W 47mi, 75km
Updated: Fri, 04-Sep-2015 1:51pm EDT

 
Visibility: 13 miles
2015/09/04 17:51 KFDK 041751Z 08011KTS 10SM VCTS SCT048 32/22 A3005 RMK LGT DSNT E THROUGH SE
 
KESN - Easton/Newnam, Maryland, USA
Distance from station: SSE 48mi, 78km
Updated: Fri, 04-Sep-2015 1:50pm EDT
Partly cloudy
Partly cloudy
 Wind from ENE
Wind: ENE 9 mph , 15 km/h
Temperature: 90°F , 32°C
Heat Index: 94°F , 34°C
Dew Point: 68°F , 20°C
Humidity: 49%
Barometer: 30.05 inHg , 1017.6 hPa
Clouds: Partly cloudy
Visibility: 10 miles , 16 km
Cloud details: Partly cloudy 4500 ft
2015/09/04 17:50 KESN 041750Z 07008KT 10SM SCT045 32/20 A3005
KDCA - Washington/Natl, Washington D.c., USA
Distance from station: SW 49mi, 79km
Updated: Fri, 04-Sep-2015 2:10pm EDT
Mostly cloudy
Mostly cloudy
 Wind from ESE
Wind: ESE 8 mph , 13 km/h
Temperature: 91°F , 33°C
Heat Index: 93°F , 34°C
Dew Point: 64°F , 18°C
Humidity: 41%
Barometer: 30.01 inHg , 1016.3 hPa
Clouds: Mostly cloudy
Visibility: 9 miles , 14 km
Cloud details: Partly cloudy 4500 ft
Mostly cloudy 25000 ft
2015/09/04 18:10 KDCA 041810Z 12007KT 9SM SCT045 BKN250 33/18 A3001 RMK AO2 CB DSNT NW-SW MOV SW
 
KLNS - Lancaster, Pennsylvania, USA
Distance from station: N 49mi, 79km
Updated: Fri, 04-Sep-2015 1:53pm EDT
Mostly cloudy
Mostly cloudy
 Wind from E
Wind: E 7 mph , 11 km/h
Temperature: 88°F , 31°C
Heat Index: 91°F , 33°C
Dew Point: 66°F , 19°C
Humidity: 49%
Barometer: 30.05 inHg , 1017.6 hPa
Clouds: Mostly cloudy
Visibility: 8 miles , 13 km
Cloud details: Few Clouds 4400 ft
Mostly cloudy 8500 ft
2015/09/04 17:53 KLNS 041753Z 09006KT 8SM FEW044 BKN085 31/19 A3005 RMK AO2 RAB44E53 SLP170 P0000 60000 T03110194 10322 20233 58001
KILG - Wilmington, Delaware, USA
Distance from station: ENE 50mi, 81km
Updated: Fri, 04-Sep-2015 2:29pm EDT
Thunderstorm, Partly cloudy
Thunderstorm, Partly cloudy
 Wind from E
Wind: E 6 mph , 9 km/h
Temperature: 91°F , 33°C
Heat Index: 94°F , 34°C
Dew Point: 66°F , 19°C
Humidity: 44%
Barometer: 30.03 inHg , 1016.9 hPa
Summary: Thunderstorm
Clouds: Partly cloudy
Visibility: 7 miles , 11 km
Cloud details: Partly cloudy 5000 ft
2015/09/04 18:29 KILG 041829Z 09005KT 7SM TS SCT050 33/19 A3003 RMK AO2 LTG DSNT E AND SE TSB23 T03280189 $